Terminal Aerodrome Forecast
Issued by NWS

Home | Current Version | Previous Version | Graphics & Text | Print | Product List | Glossary On
Versions: 1 2 3 4 5 6 7 8 9 10 11 12 13 14
000
FTUS43 KICT 240520
TAFSLN
TAF
KSLN 240520Z 2406/2506 32009KT P6SM SCT100
     FM240900 28009KT P6SM SKC
     FM241900 28015G22KT P6SM SCT250
     FM250000 28014KT P6SM BKN120=

USA.gov is the U.S. government's official web portal to all federal, state and local government web resources and services.